createdAt,value
2023-04-10T00:00:16.728Z,12.70
2023-04-10T00:02:45.835Z,12.70
2023-04-10T00:05:15.088Z,12.70
2023-04-10T00:07:45.477Z,12.80
2023-04-10T00:10:14.313Z,12.70
2023-04-10T00:12:43.273Z,12.70
2023-04-10T00:15:12.541Z,12.60
2023-04-10T00:17:41.551Z,12.60
2023-04-10T00:20:11.423Z,12.60
2023-04-10T00:22:42.146Z,12.60
2023-04-10T00:25:12.704Z,12.60
2023-04-10T00:27:41.671Z,12.50
2023-04-10T00:30:10.989Z,12.40
2023-04-10T00:32:39.959Z,12.40
2023-04-10T00:35:10.017Z,12.50
2023-04-10T00:37:39.230Z,12.70
2023-04-10T00:40:09.556Z,12.70
2023-04-10T00:42:39.953Z,12.50
2023-04-10T00:45:09.464Z,12.40
2023-04-10T00:47:39.509Z,12.40
2023-04-10T00:50:09.252Z,12.30
2023-04-10T00:52:39.023Z,12.30
2023-04-10T00:55:08.730Z,12.20
2023-04-10T00:57:39.382Z,12.00
2023-04-10T01:00:11.195Z,11.90
2023-04-10T01:02:40.372Z,11.70
2023-04-10T01:05:10.391Z,11.70
2023-04-10T01:07:51.847Z,11.70
2023-04-10T01:10:30.889Z,11.80
2023-04-10T01:13:09.990Z,11.80
2023-04-10T01:15:45.157Z,11.70
2023-04-10T01:18:20.676Z,11.70
2023-04-10T01:20:49.704Z,11.70
2023-04-10T01:23:55.816Z,11.70
2023-04-10T01:26:40.829Z,11.60
2023-04-10T01:29:19.594Z,11.60
2023-04-10T01:31:55.510Z,11.60
2023-04-10T01:34:33.121Z,11.70
2023-04-10T01:37:05.480Z,11.70
2023-04-10T01:39:38.955Z,11.70
2023-04-10T01:42:10.545Z,11.60
2023-04-10T01:44:44.041Z,11.70
2023-04-10T01:47:16.448Z,11.70
2023-04-10T01:49:48.389Z,11.60
2023-04-10T01:52:18.853Z,11.60
2023-04-10T01:54:53.550Z,11.70
2023-04-10T01:57:30.634Z,11.60
2023-04-10T02:00:02.265Z,11.60
2023-04-10T02:02:32.857Z,11.60
2023-04-10T02:05:01.887Z,11.70
2023-04-10T02:07:37.903Z,11.60
2023-04-10T02:10:12.842Z,11.60
2023-04-10T02:12:50.671Z,11.60
2023-04-10T02:15:22.714Z,11.60
2023-04-10T02:17:53.988Z,11.60
2023-04-10T02:20:25.063Z,11.60
2023-04-10T02:22:54.773Z,11.60
2023-04-10T02:25:23.797Z,11.60
2023-04-10T02:27:52.844Z,11.60
2023-04-10T02:30:24.827Z,11.60
2023-04-10T02:32:53.970Z,11.60
2023-04-10T02:35:22.716Z,11.60
2023-04-10T02:37:51.728Z,11.60
2023-04-10T02:40:20.976Z,11.60
2023-04-10T02:42:58.097Z,11.60
2023-04-10T02:45:28.565Z,11.60
2023-04-10T02:47:57.808Z,11.40
2023-04-10T02:50:29.742Z,11.50
2023-04-10T02:52:58.916Z,11.60
2023-04-10T02:55:28.047Z,11.50
2023-04-10T02:57:57.583Z,11.40
2023-04-10T03:00:27.787Z,11.40
2023-04-10T03:03:17.284Z,11.50
2023-04-10T03:05:55.871Z,11.50
2023-04-10T03:08:31.148Z,11.50
2023-04-10T03:11:00.029Z,11.60
2023-04-10T03:13:29.066Z,11.70
2023-04-10T03:15:59.359Z,11.70
2023-04-10T03:18:28.252Z,11.70
2023-04-10T03:20:58.186Z,11.60
2023-04-10T03:23:27.096Z,11.60
2023-04-10T03:25:56.312Z,11.60
2023-04-10T03:28:29.847Z,11.70
2023-04-10T03:31:00.032Z,11.70
2023-04-10T03:33:29.050Z,11.60
2023-04-10T03:35:58.529Z,11.50
2023-04-10T03:38:28.075Z,11.50
2023-04-10T03:40:57.204Z,11.50
2023-04-10T03:43:28.387Z,11.50
2023-04-10T03:45:57.232Z,11.50
2023-04-10T03:48:30.604Z,11.50
2023-04-10T03:50:59.841Z,11.40
2023-04-10T03:53:28.761Z,11.30
2023-04-10T03:55:57.763Z,11.20
2023-04-10T03:58:27.629Z,11.20
2023-04-10T04:00:58.329Z,11.20
2023-04-10T04:03:37.407Z,11.40
2023-04-10T04:06:25.199Z,11.30
2023-04-10T04:09:17.379Z,11.20
2023-04-10T04:11:54.325Z,11.20
2023-04-10T04:14:44.885Z,11.20
2023-04-10T04:17:32.588Z,11.20
2023-04-10T04:20:12.566Z,11.20
2023-04-10T04:23:07.276Z,11.20
2023-04-10T04:25:59.828Z,11.20
2023-04-10T04:28:47.991Z,11.20
2023-04-10T04:31:19.938Z,11.30
2023-04-10T04:34:07.706Z,11.30
2023-04-10T04:47:19.115Z,11.20
2023-04-10T04:49:58.547Z,11.20
2023-04-10T04:52:47.808Z,11.30
2023-04-10T04:55:35.449Z,11.20
2023-04-10T04:58:12.160Z,11.20
2023-04-10T05:01:02.027Z,11.20
2023-04-10T05:03:50.416Z,11.30
2023-04-10T05:06:51.475Z,11.20
2023-04-10T05:09:39.203Z,11.20
2023-04-10T05:12:28.308Z,11.10
2023-04-10T05:15:10.052Z,11.10
2023-04-10T05:17:53.269Z,11.10
2023-04-10T05:20:44.046Z,11.10
2023-04-10T05:23:31.473Z,11.30
2023-04-10T05:26:19.307Z,11.40
2023-04-10T05:29:10.431Z,11.40
2023-04-10T05:32:09.708Z,11.40
2023-04-10T05:34:46.153Z,11.50
2023-04-10T05:37:28.720Z,11.50
2023-04-10T05:40:17.480Z,11.60
2023-04-10T05:43:10.770Z,11.70
2023-04-10T05:45:58.925Z,11.50
2023-04-10T05:49:00.905Z,11.50
2023-04-10T05:51:50.266Z,11.50
2023-04-10T05:54:32.362Z,11.50
2023-04-10T05:57:20.005Z,11.60
2023-04-10T05:59:57.581Z,11.60
2023-04-10T06:02:44.136Z,11.60
2023-04-10T06:05:23.251Z,11.60
2023-04-10T06:07:59.761Z,11.80
2023-04-10T06:10:31.693Z,11.90
2023-04-10T06:13:00.961Z,11.80
2023-04-10T06:15:30.593Z,11.80
2023-04-10T06:18:00.007Z,11.90
2023-04-10T06:20:29.201Z,11.80
2023-04-10T06:22:58.317Z,11.90
2023-04-10T06:25:27.534Z,12.00
2023-04-10T06:27:58.115Z,12.00
2023-04-10T06:30:27.539Z,12.10
2023-04-10T06:32:56.507Z,12.20
2023-04-10T06:35:26.028Z,12.00
2023-04-10T06:37:54.993Z,12.00
2023-04-10T06:40:23.809Z,12.00
2023-04-10T06:42:52.750Z,12.10
2023-04-10T06:45:32.471Z,12.00
2023-04-10T06:48:01.701Z,12.10
2023-04-10T06:50:32.891Z,12.10
2023-04-10T06:53:02.329Z,12.30
2023-04-10T06:55:31.365Z,12.50
2023-04-10T06:58:00.438Z,12.40
2023-04-10T07:00:29.737Z,12.50
2023-04-10T07:03:00.472Z,12.40
2023-04-10T07:05:29.381Z,12.40
2023-04-10T07:07:58.532Z,12.50
2023-04-10T07:10:27.397Z,12.70
2023-04-10T07:12:57.328Z,12.70
2023-04-10T07:15:26.657Z,12.90
2023-04-10T07:17:56.444Z,12.90
2023-04-10T07:20:28.165Z,13.00
2023-04-10T07:22:56.980Z,13.10
2023-04-10T07:25:25.910Z,13.30
2023-04-10T07:27:54.958Z,13.40
2023-04-10T07:30:23.786Z,13.40
2023-04-10T07:32:52.949Z,13.50
2023-04-10T07:35:21.962Z,13.70
2023-04-10T07:37:53.097Z,13.70
2023-04-10T07:40:22.217Z,13.80
2023-04-10T07:42:53.335Z,13.80
2023-04-10T07:45:22.793Z,13.70
2023-04-10T07:47:51.725Z,13.60
2023-04-10T07:50:20.849Z,13.70
2023-04-10T07:52:51.825Z,13.80
2023-04-10T07:55:21.164Z,13.70
2023-04-10T07:57:52.290Z,13.70
2023-04-10T08:00:21.313Z,13.60
2023-04-10T08:02:50.262Z,13.50
2023-04-10T08:05:19.805Z,13.60
2023-04-10T08:07:48.734Z,13.60
2023-04-10T08:10:19.006Z,13.60
2023-04-10T08:12:47.929Z,13.50
2023-04-10T08:15:16.799Z,13.70
2023-04-10T08:17:45.579Z,13.70
2023-04-10T08:20:15.148Z,13.80
2023-04-10T08:22:44.216Z,13.80
2023-04-10T08:25:13.211Z,13.90
2023-04-10T08:27:43.792Z,14.00
2023-04-10T08:30:13.027Z,13.90
2023-04-10T08:32:42.210Z,13.90
2023-04-10T08:35:11.426Z,13.90
2023-04-10T08:37:40.275Z,14.00
2023-04-10T08:40:10.377Z,14.20
2023-04-10T08:42:39.388Z,14.30
2023-04-10T08:45:11.144Z,14.10
2023-04-10T08:47:42.830Z,14.20
2023-04-10T08:50:14.487Z,14.20
2023-04-10T08:52:46.461Z,14.30
2023-04-10T08:55:15.728Z,14.50
2023-04-10T08:57:54.332Z,14.70
2023-04-10T09:00:31.756Z,14.60
2023-04-10T09:03:00.938Z,14.70
2023-04-10T09:05:30.921Z,14.80
2023-04-10T09:07:59.698Z,14.70
2023-04-10T09:10:28.416Z,14.80
2023-04-10T09:12:57.320Z,15.00
2023-04-10T09:15:26.260Z,15.00
2023-04-10T09:18:01.654Z,15.20
2023-04-10T09:20:32.501Z,15.40
2023-04-10T09:23:02.492Z,15.20
2023-04-10T09:25:36.578Z,15.20
2023-04-10T09:28:06.910Z,15.10
2023-04-10T09:30:38.169Z,15.00
2023-04-10T09:33:24.001Z,15.20
2023-04-10T09:35:53.067Z,15.40
2023-04-10T09:38:23.173Z,15.60
2023-04-10T09:40:53.651Z,15.80
2023-04-10T09:43:25.285Z,15.80
2023-04-10T09:45:56.613Z,15.60
2023-04-10T09:48:27.957Z,15.60
2023-04-10T09:50:57.898Z,15.80
2023-04-10T09:53:26.828Z,15.80
2023-04-10T09:55:56.986Z,15.90
2023-04-10T09:58:26.547Z,16.20
2023-04-10T10:00:55.515Z,16.50
2023-04-10T10:03:25.604Z,16.60
2023-04-10T10:05:56.030Z,16.70
2023-04-10T10:08:25.399Z,16.80
2023-04-10T10:10:56.609Z,16.70
2023-04-10T10:13:29.513Z,16.70
2023-04-10T10:16:04.658Z,16.80
2023-04-10T10:18:40.481Z,17.30
2023-04-10T10:21:11.494Z,17.40
2023-04-10T10:23:43.464Z,17.80
2023-04-10T10:26:12.401Z,17.90
2023-04-10T10:28:42.002Z,18.20
2023-04-10T10:31:12.455Z,18.40
2023-04-10T10:33:42.372Z,18.10
2023-04-10T10:36:14.027Z,18.20
2023-04-10T10:38:50.078Z,18.30
2023-04-10T10:41:26.792Z,18.30
2023-04-10T10:44:02.694Z,18.60
2023-04-10T10:46:38.580Z,18.40
2023-04-10T10:49:07.615Z,18.40
2023-04-10T10:51:48.266Z,18.50
2023-04-10T10:54:33.591Z,18.70
2023-04-10T10:57:06.573Z,18.80
2023-04-10T10:59:57.797Z,19.00
2023-04-10T11:02:27.274Z,18.80
2023-04-10T11:04:56.347Z,18.80
2023-04-10T11:08:05.000Z,19.00
2023-04-10T11:11:00.934Z,18.90
2023-04-10T11:13:30.032Z,19.00
2023-04-10T11:15:59.409Z,19.10
2023-04-10T11:22:06.039Z,18.80
2023-04-10T11:24:56.317Z,18.90
2023-04-10T11:27:42.599Z,18.90
2023-04-10T11:30:33.151Z,18.90
2023-04-10T11:33:03.975Z,18.90
2023-04-10T11:35:33.994Z,19.10
2023-04-10T11:38:16.514Z,19.10
2023-04-10T11:41:07.056Z,19.10
2023-04-10T11:43:36.039Z,19.00
2023-04-10T11:46:07.546Z,19.10
2023-04-10T11:48:38.038Z,19.20
2023-04-10T11:51:14.325Z,19.10
2023-04-10T11:53:43.700Z,18.90
2023-04-10T11:56:22.535Z,18.80
2023-04-10T11:58:54.685Z,18.90
2023-04-10T12:01:24.522Z,19.00
2023-04-10T12:03:53.744Z,19.10
2023-04-10T12:06:23.235Z,18.80
2023-04-10T12:08:52.356Z,18.80
2023-04-10T12:11:25.247Z,18.70
2023-04-10T12:13:55.071Z,18.50
2023-04-10T12:16:24.264Z,18.40
2023-04-10T12:18:54.528Z,18.40
2023-04-10T12:21:23.868Z,18.50
2023-04-10T12:23:53.091Z,18.60
2023-04-10T12:26:24.202Z,18.70
2023-04-10T12:28:54.786Z,18.80
2023-04-10T12:31:31.181Z,18.90
2023-04-10T12:34:03.472Z,19.00
2023-04-10T12:36:35.556Z,18.80
2023-04-10T12:39:08.921Z,18.90
2023-04-10T12:41:47.031Z,18.90
2023-04-10T12:44:21.096Z,19.00
2023-04-10T12:46:51.180Z,19.30
2023-04-10T12:49:20.363Z,19.30
2023-04-10T12:51:53.735Z,19.30
2023-04-10T12:54:30.688Z,19.10
2023-04-10T12:57:01.905Z,19.00
2023-04-10T12:59:31.447Z,18.70
2023-04-10T13:02:00.617Z,18.60
2023-04-10T13:04:31.701Z,18.30
2023-04-10T13:07:01.263Z,18.00
2023-04-10T13:09:30.018Z,17.60
2023-04-10T13:12:00.249Z,17.50
2023-04-10T13:14:29.045Z,17.60
2023-04-10T13:16:57.852Z,17.70
2023-04-10T13:19:26.723Z,17.60
2023-04-10T13:21:55.889Z,17.70
2023-04-10T13:24:24.782Z,17.90
2023-04-10T13:26:53.580Z,18.00
2023-04-10T13:29:24.031Z,17.90
2023-04-10T13:31:52.972Z,18.00
2023-04-10T13:34:21.941Z,18.10
2023-04-10T13:36:51.066Z,18.20
2023-04-10T13:39:19.869Z,18.30
2023-04-10T13:41:48.776Z,18.50
2023-04-10T13:44:17.602Z,18.60
2023-04-10T13:46:47.977Z,18.70
2023-04-10T13:49:17.909Z,18.90
2023-04-10T13:51:47.129Z,18.70
2023-04-10T13:54:17.069Z,18.60
2023-04-10T13:56:46.711Z,18.60
2023-04-10T13:59:15.818Z,18.40
2023-04-10T14:01:44.789Z,18.40
2023-04-10T14:04:15.125Z,18.30
2023-04-10T14:06:43.993Z,18.40
2023-04-10T14:09:12.947Z,18.40
2023-04-10T14:11:41.885Z,18.20
2023-04-10T14:14:10.893Z,18.00
2023-04-10T14:16:39.765Z,17.90
2023-04-10T14:19:08.603Z,17.90
2023-04-10T14:21:40.656Z,18.10
2023-04-10T14:24:09.657Z,18.40
2023-04-10T14:26:38.586Z,18.50
2023-04-10T14:29:08.700Z,18.50
2023-04-10T14:31:47.172Z,18.60
2023-04-10T14:34:23.675Z,18.60
2023-04-10T14:36:55.903Z,18.60
2023-04-10T14:39:25.871Z,18.50
2023-04-10T14:41:54.881Z,18.40
2023-04-10T14:44:23.837Z,18.30
2023-04-10T14:46:52.846Z,18.00
2023-04-10T14:49:21.838Z,17.90
2023-04-10T14:51:50.991Z,17.70
2023-04-10T14:54:23.636Z,17.40
2023-04-10T14:56:52.551Z,17.00
2023-04-10T14:59:21.393Z,16.70
2023-04-10T15:01:50.576Z,16.50
2023-04-10T15:04:19.585Z,16.40
2023-04-10T15:06:48.356Z,16.30
2023-04-10T15:09:17.188Z,16.10
2023-04-10T15:11:47.879Z,15.90
2023-04-10T15:14:17.103Z,15.80
2023-04-10T15:16:47.456Z,15.70
2023-04-10T15:19:16.262Z,15.60
2023-04-10T15:21:45.262Z,15.50
2023-04-10T15:24:14.329Z,15.60
2023-04-10T15:26:46.756Z,15.60
2023-04-10T15:29:15.747Z,15.40
2023-04-10T15:31:45.020Z,15.30
2023-04-10T15:34:14.755Z,15.20
2023-04-10T15:36:43.558Z,15.10
2023-04-10T15:39:12.555Z,15.00
2023-04-10T15:41:41.439Z,15.10
2023-04-10T15:44:11.728Z,15.20
2023-04-10T15:46:40.770Z,15.00
2023-04-10T15:49:09.859Z,14.90
2023-04-10T15:51:41.948Z,14.80
2023-04-10T15:54:11.183Z,14.50
2023-04-10T15:56:40.736Z,14.30
2023-04-10T15:59:11.130Z,14.10
2023-04-10T16:01:40.441Z,14.00
2023-04-10T16:04:09.418Z,13.90
2023-04-10T16:06:38.524Z,13.90
2023-04-10T16:09:22.040Z,13.90
2023-04-10T16:11:54.109Z,13.70
2023-04-10T16:14:24.401Z,13.70
2023-04-10T16:16:53.288Z,13.60
2023-04-10T16:19:22.239Z,13.60
2023-04-10T16:21:51.305Z,13.50
2023-04-10T16:24:20.246Z,13.50
2023-04-10T16:26:49.003Z,13.50
2023-04-10T16:29:19.923Z,13.60
2023-04-10T16:31:50.479Z,13.50
2023-04-10T16:34:19.432Z,13.50
2023-04-10T16:36:48.328Z,13.50
2023-04-10T16:39:17.311Z,13.50
2023-04-10T16:41:46.264Z,13.50
2023-04-10T16:44:15.299Z,13.50
2023-04-10T16:46:44.271Z,13.40
2023-04-10T16:49:14.653Z,13.40
2023-04-10T16:51:43.416Z,13.40
2023-04-10T16:54:12.306Z,13.30
2023-04-10T16:56:41.142Z,13.20
2023-04-10T16:59:09.965Z,13.20
2023-04-10T17:01:40.660Z,13.10
2023-04-10T17:04:10.698Z,13.00
2023-04-10T17:06:40.912Z,13.10
2023-04-10T17:09:09.938Z,12.90
2023-04-10T17:11:39.253Z,13.00
2023-04-10T17:14:09.082Z,13.00
2023-04-10T17:16:38.197Z,13.00
2023-04-10T17:19:07.221Z,13.10
2023-04-10T17:21:36.301Z,13.20
2023-04-10T17:24:07.015Z,13.30
2023-04-10T17:26:36.005Z,13.40
2023-04-10T17:29:05.082Z,13.30
2023-04-10T17:31:34.100Z,13.10
2023-04-10T17:34:03.964Z,13.10
2023-04-10T17:36:33.304Z,13.10
2023-04-10T17:39:02.413Z,13.10
2023-04-10T17:41:32.643Z,13.10
2023-04-10T17:44:03.149Z,13.00
2023-04-10T17:46:32.078Z,13.10
2023-04-10T17:49:04.483Z,13.10
2023-04-10T17:51:34.082Z,13.10
2023-04-10T17:54:04.540Z,13.20
2023-04-10T17:56:35.185Z,13.20
2023-04-10T17:59:04.279Z,13.20
2023-04-10T18:01:33.113Z,13.30
2023-04-10T18:04:05.456Z,13.10
2023-04-10T18:06:34.649Z,13.00
2023-04-10T18:09:03.780Z,12.90
2023-04-10T18:11:33.989Z,12.80
2023-04-10T18:14:02.842Z,12.70
2023-04-10T18:16:31.695Z,12.60
2023-04-10T18:19:00.688Z,12.70
2023-04-10T18:21:29.581Z,12.70
2023-04-10T18:23:58.554Z,12.80
2023-04-10T18:26:29.685Z,12.90
2023-04-10T18:29:01.542Z,12.90
2023-04-10T18:31:30.512Z,12.80
2023-04-10T18:34:07.281Z,12.80
2023-04-10T18:36:37.546Z,12.80
2023-04-10T18:39:06.513Z,12.80
2023-04-10T18:41:38.976Z,12.80
2023-04-10T18:44:09.491Z,12.80
2023-04-10T18:46:38.998Z,12.80
2023-04-10T18:49:08.133Z,12.80
2023-04-10T18:51:38.517Z,12.70
2023-04-10T18:54:11.401Z,12.60
2023-04-10T18:56:40.305Z,12.70
2023-04-10T18:59:10.937Z,12.60
2023-04-10T19:01:40.057Z,12.70
2023-04-10T19:04:09.132Z,12.80
2023-04-10T19:06:39.792Z,12.90
2023-04-10T19:09:09.317Z,13.00
2023-04-10T19:11:38.128Z,13.00
2023-04-10T19:14:07.620Z,13.00
2023-04-10T19:16:38.121Z,13.00
2023-04-10T19:19:08.051Z,13.00
2023-04-10T19:21:36.908Z,13.00
2023-04-10T19:24:06.178Z,12.90
2023-04-10T19:26:35.392Z,12.90
2023-04-10T19:29:04.538Z,12.80
2023-04-10T19:31:33.780Z,12.80
2023-04-10T19:34:09.059Z,12.70
2023-04-10T19:36:38.255Z,12.70
2023-04-10T19:39:07.080Z,12.60
2023-04-10T19:41:37.332Z,12.60
2023-04-10T19:44:06.610Z,12.60
2023-04-10T19:46:38.523Z,12.50
2023-04-10T19:49:11.270Z,12.40
2023-04-10T19:51:41.208Z,12.50
2023-04-10T19:54:10.176Z,12.50
2023-04-10T19:56:39.306Z,12.60
2023-04-10T19:59:08.480Z,12.60
2023-04-10T20:01:37.799Z,12.50
2023-04-10T20:04:08.480Z,12.40
2023-04-10T20:06:37.599Z,12.40
2023-04-10T20:09:08.213Z,12.40
2023-04-10T20:11:37.277Z,12.40
2023-04-10T20:14:06.373Z,12.40
2023-04-10T20:16:35.549Z,12.40
2023-04-10T20:19:05.133Z,12.40
2023-04-10T20:21:38.028Z,12.30
2023-04-10T20:24:08.443Z,12.30
2023-04-10T20:26:37.340Z,12.40
2023-04-10T20:29:07.699Z,12.30
2023-04-10T20:31:37.420Z,12.20
2023-04-10T20:34:07.016Z,12.20
2023-04-10T20:36:37.910Z,12.20
2023-04-10T20:39:07.238Z,12.10
2023-04-10T20:41:36.308Z,12.00
2023-04-10T20:44:06.562Z,11.90
2023-04-10T20:46:35.749Z,11.90
2023-04-10T20:49:04.885Z,11.70
2023-04-10T20:51:37.215Z,11.70
2023-04-10T20:54:10.377Z,11.60
2023-04-10T20:56:43.468Z,11.70
2023-04-10T20:59:13.001Z,11.80
2023-04-10T21:01:42.031Z,11.90
2023-04-10T21:04:11.143Z,11.90
2023-04-10T21:06:39.985Z,11.90
2023-04-10T21:09:10.227Z,11.80
2023-04-10T21:11:39.217Z,11.70
2023-04-10T21:14:09.190Z,11.70
2023-04-10T21:16:42.302Z,11.80
2023-04-10T21:19:12.318Z,11.80
2023-04-10T21:21:41.485Z,11.80
2023-04-10T21:24:11.774Z,11.80
2023-04-10T21:26:40.482Z,11.90
2023-04-10T21:29:09.482Z,11.90
2023-04-10T21:31:38.413Z,11.90
2023-04-10T21:34:07.406Z,11.80
2023-04-10T21:36:36.268Z,11.80
2023-04-10T21:39:09.112Z,11.80
2023-04-10T21:41:39.792Z,11.80
2023-04-10T21:44:08.851Z,11.90
2023-04-10T21:46:38.063Z,11.80
2023-04-10T21:49:06.899Z,11.70
2023-04-10T21:51:36.176Z,11.70
2023-04-10T21:54:05.709Z,11.70
2023-04-10T21:56:35.732Z,11.80
2023-04-10T21:59:07.589Z,11.70
2023-04-10T22:01:37.945Z,11.70
2023-04-10T22:04:07.497Z,11.70
2023-04-10T22:06:38.471Z,11.70
2023-04-10T22:09:07.308Z,11.80
2023-04-10T22:11:39.387Z,11.70
2023-04-10T22:14:17.252Z,11.70
2023-04-10T22:16:47.295Z,11.60
2023-04-10T22:19:16.472Z,11.60
2023-04-10T22:21:45.686Z,11.60
2023-04-10T22:24:15.214Z,11.50
2023-04-10T22:26:46.119Z,11.40
2023-04-10T22:29:16.689Z,11.50
2023-04-10T22:31:46.380Z,11.30
2023-04-10T22:34:15.516Z,11.30
2023-04-10T22:36:47.430Z,11.20
2023-04-10T22:39:16.428Z,11.30
2023-04-10T22:41:45.438Z,11.20
2023-04-10T22:44:18.694Z,11.10
2023-04-10T22:46:48.517Z,11.10
2023-04-10T22:49:17.832Z,11.00
2023-04-10T22:51:47.183Z,11.00
2023-04-10T22:54:17.097Z,11.00
2023-04-10T22:56:45.938Z,11.00
2023-04-10T22:59:18.456Z,11.00
2023-04-10T23:01:47.124Z,11.00
2023-04-10T23:04:15.965Z,10.90
2023-04-10T23:06:44.740Z,10.90
2023-04-10T23:09:13.633Z,10.90
2023-04-10T23:11:42.540Z,10.90
2023-04-10T23:14:11.777Z,10.80
2023-04-10T23:16:43.916Z,10.90
2023-04-10T23:19:12.901Z,10.80
2023-04-10T23:21:41.760Z,10.80
2023-04-10T23:24:10.632Z,10.80
2023-04-10T23:26:39.398Z,10.90
2023-04-10T23:29:08.198Z,10.90
2023-04-10T23:31:37.212Z,10.90
2023-04-10T23:34:07.372Z,10.90
2023-04-10T23:36:36.551Z,11.00
2023-04-10T23:39:05.468Z,11.10
2023-04-10T23:41:37.331Z,11.20
2023-04-10T23:44:06.672Z,11.20
2023-04-10T23:46:35.694Z,11.20
2023-04-10T23:49:06.003Z,11.30
2023-04-10T23:51:34.864Z,11.30
2023-04-10T23:54:04.149Z,11.30
2023-04-10T23:56:33.150Z,11.30
2023-04-10T23:59:02.032Z,11.40
